Potlatch, Idaho
Current Conditions -  °F | °C
As of 8:53 PM on Saturday 22 Nov 2014 (Local Time) from KPUW Reporting Station
Few Clouds Few Clouds  
Wind Chill: 27°   Ceiling: Unl
Heat Index: 37°   Visibility: 10mi
Dew Point: 33°   Wind: 18mph
Humidity: 86%   Direction: 260°W
Pressure: 29.94"   Gusts: 24mph
Location:  46.92°N, 116.9°W
Report Text: KPUW 230453Z AUTO 26016G21KT 10SM FEW014 03/01 A2994 RMK AO2 PK WND 24026/0355 SLP154 T00280006
Loading
Personal Weather Stations






























Interactive Weather Map New forecast layout! Learn more

10-Day Weather Forecast

Advertisements
Track Severe Weather on mobile